sensor_id;sensor_type;location;lat;lon;timestamp;pressure;altitude;pressure_sealevel;temperature;humidity
16821;BME280;8527;49.740;6.604;2023-05-14T00:01:35;99947.72;;;10.22;100.00
16821;BME280;8527;49.740;6.604;2023-05-14T00:06:33;99945.50;;;9.93;100.00
16821;BME280;8527;49.740;6.604;2023-05-14T00:11:32;99945.97;;;9.88;100.00
16821;BME280;8527;49.740;6.604;2023-05-14T00:16:30;99940.53;;;9.98;100.00
16821;BME280;8527;49.740;6.604;2023-05-14T00:21:34;99942.31;;;9.89;100.00
16821;BME280;8527;49.740;6.604;2023-05-14T00:26:32;99942.22;;;10.07;100.00
16821;BME280;8527;49.740;6.604;2023-05-14T00:31:31;99937.13;;;10.22;100.00
16821;BME280;8527;49.740;6.604;2023-05-14T00:36:29;99927.50;;;10.13;100.00
16821;BME280;8527;49.740;6.604;2023-05-14T00:41:33;99926.31;;;10.16;100.00
16821;BME280;8527;49.740;6.604;2023-05-14T00:46:32;99914.41;;;10.11;100.00
16821;BME280;8527;49.740;6.604;2023-05-14T00:51:32;99918.09;;;10.35;100.00
16821;BME280;8527;49.740;6.604;2023-05-14T00:56:40;99932.34;;;10.34;100.00
16821;BME280;8527;49.740;6.604;2023-05-14T01:01:45;99925.03;;;10.20;100.00
16821;BME280;8527;49.740;6.604;2023-05-14T01:06:51;99928.94;;;9.99;100.00
16821;BME280;8527;49.740;6.604;2023-05-14T01:12:04;99921.72;;;10.18;100.00
16821;BME280;8527;49.740;6.604;2023-05-14T01:17:06;99920.72;;;10.27;100.00
16821;BME280;8527;49.740;6.604;2023-05-14T01:22:09;99927.38;;;10.39;100.00
16821;BME280;8527;49.740;6.604;2023-05-14T01:27:12;99910.81;;;10.37;100.00
16821;BME280;8527;49.740;6.604;2023-05-14T01:32:14;99919.31;;;10.41;100.00
16821;BME280;8527;49.740;6.604;2023-05-14T01:37:20;99914.31;;;10.38;100.00
16821;BME280;8527;49.740;6.604;2023-05-14T01:42:20;99915.66;;;10.42;100.00
16821;BME280;8527;49.740;6.604;2023-05-14T01:47:23;99915.09;;;10.30;100.00
16821;BME280;8527;49.740;6.604;2023-05-14T01:52:28;99918.19;;;10.09;100.00
16821;BME280;8527;49.740;6.604;2023-05-14T01:57:26;99907.72;;;9.99;100.00
16821;BME280;8527;49.740;6.604;2023-05-14T02:02:25;99901.63;;;10.07;100.00
16821;BME280;8527;49.740;6.604;2023-05-14T02:07:24;99896.03;;;10.18;100.00
16821;BME280;8527;49.740;6.604;2023-05-14T02:12:25;99896.16;;;10.08;100.00
16821;BME280;8527;49.740;6.604;2023-05-14T02:17:25;99887.25;;;10.18;100.00
16821;BME280;8527;49.740;6.604;2023-05-14T02:22:23;99887.88;;;10.11;100.00
16821;BME280;8527;49.740;6.604;2023-05-14T02:27:27;99878.34;;;9.84;100.00
16821;BME280;8527;49.740;6.604;2023-05-14T02:32:26;99883.00;;;9.82;100.00
16821;BME280;8527;49.740;6.604;2023-05-14T02:37:28;99880.53;;;9.80;100.00
16821;BME280;8527;49.740;6.604;2023-05-14T02:42:29;99879.25;;;10.01;100.00
16821;BME280;8527;49.740;6.604;2023-05-14T02:47:33;99888.88;;;10.10;100.00
16821;BME280;8527;49.740;6.604;2023-05-14T02:52:31;99882.25;;;10.06;100.00
16821;BME280;8527;49.740;6.604;2023-05-14T02:57:33;99881.06;;;10.09;100.00
16821;BME280;8527;49.740;6.604;2023-05-14T03:02:31;99884.38;;;10.11;100.00
16821;BME280;8527;49.740;6.604;2023-05-14T03:07:30;99878.56;;;9.99;100.00
16821;BME280;8527;49.740;6.604;2023-05-14T03:12:28;99881.34;;;9.81;100.00
16821;BME280;8527;49.740;6.604;2023-05-14T03:17:29;99871.94;;;9.95;100.00
16821;BME280;8527;49.740;6.604;2023-05-14T03:22:28;99875.44;;;10.04;100.00
16821;BME280;8527;49.740;6.604;2023-05-14T03:27:26;99868.81;;;9.99;100.00
16821;BME280;8527;49.740;6.604;2023-05-14T03:32:25;99874.44;;;10.05;100.00
16821;BME280;8527;49.740;6.604;2023-05-14T03:37:28;99876.25;;;9.96;100.00
16821;BME280;8527;49.740;6.604;2023-05-14T03:42:27;99875.09;;;9.98;100.00
16821;BME280;8527;49.740;6.604;2023-05-14T03:47:25;99876.78;;;9.99;100.00
16821;BME280;8527;49.740;6.604;2023-05-14T03:52:28;99880.38;;;9.98;99.47
16821;BME280;8527;49.740;6.604;2023-05-14T03:57:27;99874.38;;;9.80;100.00
16821;BME280;8527;49.740;6.604;2023-05-14T04:02:26;99866.13;;;9.91;100.00
16821;BME280;8527;49.740;6.604;2023-05-14T04:07:27;99873.41;;;9.89;99.54
16821;BME280;8527;49.740;6.604;2023-05-14T04:12:25;99862.50;;;9.92;99.54
16821;BME280;8527;49.740;6.604;2023-05-14T04:17:26;99865.28;;;9.82;99.35
16821;BME280;8527;49.740;6.604;2023-05-14T04:22:30;99865.59;;;9.79;100.00
16821;BME280;8527;49.740;6.604;2023-05-14T04:27:38;99869.25;;;9.87;99.81
16821;BME280;8527;49.740;6.604;2023-05-14T04:32:37;99867.94;;;9.82;100.00
16821;BME280;8527;49.740;6.604;2023-05-14T04:37:38;99867.84;;;9.57;100.00
16821;BME280;8527;49.740;6.604;2023-05-14T04:42:41;99861.41;;;9.68;100.00
16821;BME280;8527;49.740;6.604;2023-05-14T04:47:41;99861.13;;;9.80;100.00
16821;BME280;8527;49.740;6.604;2023-05-14T04:52:45;99865.25;;;9.74;100.00
16821;BME280;8527;49.740;6.604;2023-05-14T04:57:44;99870.69;;;9.73;100.00
16821;BME280;8527;49.740;6.604;2023-05-14T05:02:45;99868.59;;;9.84;100.00
16821;BME280;8527;49.740;6.604;2023-05-14T05:07:57;99870.22;;;9.69;100.00
16821;BME280;8527;49.740;6.604;2023-05-14T05:12:55;99868.50;;;9.60;100.00
16821;BME280;8527;49.740;6.604;2023-05-14T05:17:57;99876.88;;;9.47;100.00
16821;BME280;8527;49.740;6.604;2023-05-14T05:22:58;99872.81;;;9.61;100.00
16821;BME280;8527;49.740;6.604;2023-05-14T05:27:56;99880.63;;;9.36;100.00
16821;BME280;8527;49.740;6.604;2023-05-14T05:32:57;99880.59;;;9.27;100.00
16821;BME280;8527;49.740;6.604;2023-05-14T05:37:59;99877.31;;;9.07;100.00
16821;BME280;8527;49.740;6.604;2023-05-14T05:42:57;99880.44;;;9.29;100.00
16821;BME280;8527;49.740;6.604;2023-05-14T05:47:56;99873.53;;;9.10;100.00
16821;BME280;8527;49.740;6.604;2023-05-14T05:52:54;99875.97;;;9.03;100.00
16821;BME280;8527;49.740;6.604;2023-05-14T05:57:56;99878.91;;;9.18;100.00
16821;BME280;8527;49.740;6.604;2023-05-14T06:02:54;99882.50;;;9.43;100.00
16821;BME280;8527;49.740;6.604;2023-05-14T06:07:53;99891.94;;;9.46;100.00
16821;BME280;8527;49.740;6.604;2023-05-14T06:12:56;99892.97;;;9.53;100.00
16821;BME280;8527;49.740;6.604;2023-05-14T06:17:55;99887.78;;;9.43;100.00
16821;BME280;8527;49.740;6.604;2023-05-14T06:22:53;99886.44;;;9.74;100.00
16821;BME280;8527;49.740;6.604;2023-05-14T06:27:52;99891.97;;;9.89;100.00
16821;BME280;8527;49.740;6.604;2023-05-14T06:32:53;99887.63;;;9.80;100.00
16821;BME280;8527;49.740;6.604;2023-05-14T06:37:57;99891.88;;;9.64;100.00
16821;BME280;8527;49.740;6.604;2023-05-14T06:42:56;99896.44;;;9.89;100.00
16821;BME280;8527;49.740;6.604;2023-05-14T06:47:57;99885.91;;;10.13;100.00
16821;BME280;8527;49.740;6.604;2023-05-14T06:52:56;99887.47;;;10.58;100.00
16821;BME280;8527;49.740;6.604;2023-05-14T06:57:55;99885.00;;;10.48;100.00
16821;BME280;8527;49.740;6.604;2023-05-14T07:02:53;99891.72;;;10.34;100.00
16821;BME280;8527;49.740;6.604;2023-05-14T07:07:54;99888.97;;;10.77;99.49
16821;BME280;8527;49.740;6.604;2023-05-14T07:12:52;99893.56;;;11.16;99.24
16821;BME280;8527;49.740;6.604;2023-05-14T07:17:51;99889.34;;;11.47;98.38
16821;BME280;8527;49.740;6.604;2023-05-14T07:22:51;99890.00;;;11.57;96.13
16821;BME280;8527;49.740;6.604;2023-05-14T07:27:54;99881.00;;;11.58;94.65
16821;BME280;8527;49.740;6.604;2023-05-14T07:32:53;99875.72;;;11.90;94.43
16821;BME280;8527;49.740;6.604;2023-05-14T07:37:52;99875.50;;;12.08;93.55
16821;BME280;8527;49.740;6.604;2023-05-14T07:42:51;99875.75;;;12.21;92.80
16821;BME280;8527;49.740;6.604;2023-05-14T07:47:52;99862.28;;;13.53;89.67
16821;BME280;8527;49.740;6.604;2023-05-14T07:52:50;99856.16;;;12.99;86.77
16821;BME280;8527;49.740;6.604;2023-05-14T07:57:48;99849.50;;;13.48;86.52
16821;BME280;8527;49.740;6.604;2023-05-14T08:02:53;99855.16;;;14.56;83.27
16821;BME280;8527;49.740;6.604;2023-05-14T08:07:51;99855.16;;;14.56;79.03
16821;BME280;8527;49.740;6.604;2023-05-14T08:12:50;99847.88;;;14.93;78.26
16821;BME280;8527;49.740;6.604;2023-05-14T08:17:51;99838.66;;;15.31;77.84
16821;BME280;8527;49.740;6.604;2023-05-14T08:22:58;99842.72;;;14.70;78.61
16821;BME280;8527;49.740;6.604;2023-05-14T08:27:56;99850.03;;;15.46;76.62
16821;BME280;8527;49.740;6.604;2023-05-14T08:32:57;99840.91;;;15.83;74.79
16821;BME280;8527;49.740;6.604;2023-05-14T08:37:58;99837.75;;;16.48;75.31
16821;BME280;8527;49.740;6.604;2023-05-14T08:42:58;99840.84;;;15.63;74.13
16821;BME280;8527;49.740;6.604;2023-05-14T08:47:58;99838.34;;;16.10;73.23
16821;BME280;8527;49.740;6.604;2023-05-14T08:53:02;99829.13;;;16.53;71.26
16821;BME280;8527;49.740;6.604;2023-05-14T08:58:03;99832.41;;;16.41;70.59
16821;BME280;8527;49.740;6.604;2023-05-14T09:03:04;99823.94;;;17.12;70.07
16821;BME280;8527;49.740;6.604;2023-05-14T09:08:09;99826.84;;;16.63;70.14
16821;BME280;8527;49.740;6.604;2023-05-14T09:13:08;99822.00;;;17.39;68.36
16821;BME280;8527;49.740;6.604;2023-05-14T09:18:06;99816.44;;;18.51;68.50
16821;BME280;8527;49.740;6.604;2023-05-14T09:23:10;99816.16;;;18.34;66.85
16821;BME280;8527;49.740;6.604;2023-05-14T09:28:08;99800.03;;;18.02;67.06
16821;BME280;8527;49.740;6.604;2023-05-14T09:33:06;99790.63;;;18.68;67.31
16821;BME280;8527;49.740;6.604;2023-05-14T09:38:05;99786.81;;;19.02;66.82
16821;BME280;8527;49.740;6.604;2023-05-14T09:43:08;99779.53;;;18.14;67.36
16821;BME280;8527;49.740;6.604;2023-05-14T09:48:07;99782.38;;;18.19;65.44
16821;BME280;8527;49.740;6.604;2023-05-14T09:53:08;99778.44;;;19.29;61.37
16821;BME280;8527;49.740;6.604;2023-05-14T09:58:09;99771.44;;;19.89;61.45
16821;BME280;8527;49.740;6.604;2023-05-14T10:03:11;99765.09;;;19.83;61.79
16821;BME280;8527;49.740;6.604;2023-05-14T10:08:13;99762.28;;;19.47;61.04
16821;BME280;8527;49.740;6.604;2023-05-14T10:13:21;99754.47;;;19.88;55.21
16821;BME280;8527;49.740;6.604;2023-05-14T10:18:22;99751.09;;;19.32;55.87
16821;BME280;8527;49.740;6.604;2023-05-14T10:23:25;99753.22;;;20.03;56.36
16821;BME280;8527;49.740;6.604;2023-05-14T10:28:26;99747.66;;;20.28;54.19
16821;BME280;8527;49.740;6.604;2023-05-14T10:33:29;99740.41;;;20.41;54.40
16821;BME280;8527;49.740;6.604;2023-05-14T10:38:36;99755.41;;;20.36;52.76
16821;BME280;8527;49.740;6.604;2023-05-14T10:43:38;99733.81;;;20.60;51.35
16821;BME280;8527;49.740;6.604;2023-05-14T10:48:39;99730.91;;;20.38;49.50
16821;BME280;8527;49.740;6.604;2023-05-14T10:53:40;99722.59;;;20.63;47.99
16821;BME280;8527;49.740;6.604;2023-05-14T10:58:44;99722.22;;;20.00;48.98
16821;BME280;8527;49.740;6.604;2023-05-14T11:03:43;99713.78;;;20.56;49.34
16821;BME280;8527;49.740;6.604;2023-05-14T11:08:42;99711.81;;;20.40;48.56
16821;BME280;8527;49.740;6.604;2023-05-14T11:13:43;99706.28;;;20.58;48.92
16821;BME280;8527;49.740;6.604;2023-05-14T11:18:42;99704.44;;;20.23;49.68
16821;BME280;8527;49.740;6.604;2023-05-14T11:23:44;99692.94;;;20.51;48.94
16821;BME280;8527;49.740;6.604;2023-05-14T11:28:46;99680.53;;;21.03;49.01
16821;BME280;8527;49.740;6.604;2023-05-14T11:33:44;99676.09;;;20.44;47.87
16821;BME280;8527;49.740;6.604;2023-05-14T11:38:46;99667.53;;;20.35;49.47
16821;BME280;8527;49.740;6.604;2023-05-14T11:43:49;99665.97;;;20.51;48.63
16821;BME280;8527;49.740;6.604;2023-05-14T11:48:47;99642.63;;;20.81;48.78
16821;BME280;8527;49.740;6.604;2023-05-14T11:53:46;99637.00;;;20.83;48.59
16821;BME280;8527;49.740;6.604;2023-05-14T11:58:57;99640.59;;;21.63;47.89
16821;BME280;8527;49.740;6.604;2023-05-14T12:03:55;99631.47;;;21.18;48.05
16821;BME280;8527;49.740;6.604;2023-05-14T12:08:54;99626.50;;;21.27;49.00
16821;BME280;8527;49.740;6.604;2023-05-14T12:13:53;99627.03;;;20.71;49.32
16821;BME280;8527;49.740;6.604;2023-05-14T12:18:58;99636.63;;;20.02;51.52
16821;BME280;8527;49.740;6.604;2023-05-14T12:23:57;99622.44;;;20.19;49.97
16821;BME280;8527;49.740;6.604;2023-05-14T12:28:58;99628.19;;;20.87;50.11
16821;BME280;8527;49.740;6.604;2023-05-14T12:34:00;99619.03;;;21.17;49.90
16821;BME280;8527;49.740;6.604;2023-05-14T12:39:00;99617.00;;;21.88;50.06
16821;BME280;8527;49.740;6.604;2023-05-14T12:44:02;99613.97;;;21.21;48.27
16821;BME280;8527;49.740;6.604;2023-05-14T12:49:03;99606.22;;;20.96;49.77
16821;BME280;8527;49.740;6.604;2023-05-14T12:54:03;99610.75;;;20.66;50.20
16821;BME280;8527;49.740;6.604;2023-05-14T12:59:01;99588.56;;;20.35;49.17
16821;BME280;8527;49.740;6.604;2023-05-14T13:04:09;99577.19;;;20.45;49.21
16821;BME280;8527;49.740;6.604;2023-05-14T13:09:11;99580.81;;;20.50;48.96
16821;BME280;8527;49.740;6.604;2023-05-14T13:14:09;99579.50;;;20.53;50.31
16821;BME280;8527;49.740;6.604;2023-05-14T13:19:10;99576.56;;;20.96;52.88
16821;BME280;8527;49.740;6.604;2023-05-14T13:24:09;99578.00;;;21.15;51.90
16821;BME280;8527;49.740;6.604;2023-05-14T13:29:08;99572.69;;;21.20;50.70
16821;BME280;8527;49.740;6.604;2023-05-14T13:34:11;99565.41;;;21.21;48.70
16821;BME280;8527;49.740;6.604;2023-05-14T13:39:10;99554.38;;;21.40;49.50
16821;BME280;8527;49.740;6.604;2023-05-14T13:44:08;99553.75;;;20.45;47.46
16821;BME280;8527;49.740;6.604;2023-05-14T13:49:06;99545.59;;;20.69;48.30
16821;BME280;8527;49.740;6.604;2023-05-14T13:54:11;99547.03;;;20.19;50.63
16821;BME280;8527;49.740;6.604;2023-05-14T13:59:13;99546.75;;;20.32;49.31
16821;BME280;8527;49.740;6.604;2023-05-14T14:04:12;99550.50;;;20.31;49.48
16821;BME280;8527;49.740;6.604;2023-05-14T14:09:13;99544.50;;;20.00;51.07
16821;BME280;8527;49.740;6.604;2023-05-14T14:14:19;99537.34;;;19.94;50.66
16821;BME280;8527;49.740;6.604;2023-05-14T14:19:17;99531.72;;;19.95;50.84
16821;BME280;8527;49.740;6.604;2023-05-14T14:24:18;99520.53;;;20.28;46.77
16821;BME280;8527;49.740;6.604;2023-05-14T14:29:19;99524.72;;;19.94;46.83
16821;BME280;8527;49.740;6.604;2023-05-14T14:34:18;99522.09;;;19.76;49.29
16821;BME280;8527;49.740;6.604;2023-05-14T14:39:24;99510.16;;;19.83;48.56
16821;BME280;8527;49.740;6.604;2023-05-14T14:44:23;99501.06;;;19.85;48.43
16821;BME280;8527;49.740;6.604;2023-05-14T14:49:24;99499.81;;;20.28;47.87
16821;BME280;8527;49.740;6.604;2023-05-14T14:54:26;99481.44;;;20.54;47.50
16821;BME280;8527;49.740;6.604;2023-05-14T14:59:24;99475.06;;;20.89;47.86
16821;BME280;8527;49.740;6.604;2023-05-14T15:04:22;99486.91;;;20.88;47.20
16821;BME280;8527;49.740;6.604;2023-05-14T15:09:21;99476.56;;;20.68;47.88
16821;BME280;8527;49.740;6.604;2023-05-14T15:14:22;99483.84;;;20.38;47.47
16821;BME280;8527;49.740;6.604;2023-05-14T15:19:20;99491.34;;;20.36;48.71
16821;BME280;8527;49.740;6.604;2023-05-14T15:24:18;99489.66;;;20.47;48.62
16821;BME280;8527;49.740;6.604;2023-05-14T15:29:23;99480.72;;;20.30;47.37
16821;BME280;8527;49.740;6.604;2023-05-14T15:34:21;99487.91;;;20.41;46.88
16821;BME280;8527;49.740;6.604;2023-05-14T15:39:19;99476.72;;;20.61;45.65
16821;BME280;8527;49.740;6.604;2023-05-14T15:44:18;99475.34;;;20.76;47.62
16821;BME280;8527;49.740;6.604;2023-05-14T15:49:19;99474.31;;;20.48;47.07
16821;BME280;8527;49.740;6.604;2023-05-14T15:54:18;99479.41;;;20.61;47.25
16821;BME280;8527;49.740;6.604;2023-05-14T15:59:16;99475.00;;;20.72;45.70
16821;BME280;8527;49.740;6.604;2023-05-14T16:04:14;99471.72;;;20.53;47.58
16821;BME280;8527;49.740;6.604;2023-05-14T16:09:15;99481.53;;;20.30;47.59
16821;BME280;8527;49.740;6.604;2023-05-14T16:14:14;99483.56;;;20.23;47.84
16821;BME280;8527;49.740;6.604;2023-05-14T16:19:12;99484.34;;;20.35;48.02
16821;BME280;8527;49.740;6.604;2023-05-14T16:24:20;99481.03;;;20.33;48.37
16821;BME280;8527;49.740;6.604;2023-05-14T16:29:18;99477.53;;;20.33;47.01
16821;BME280;8527;49.740;6.604;2023-05-14T16:34:17;99483.06;;;20.26;46.13
16821;BME280;8527;49.740;6.604;2023-05-14T16:39:15;99488.03;;;20.17;46.93
16821;BME280;8527;49.740;6.604;2023-05-14T16:44:16;99485.41;;;20.22;45.91
16821;BME280;8527;49.740;6.604;2023-05-14T16:49:15;99472.88;;;20.28;46.62
16821;BME280;8527;49.740;6.604;2023-05-14T16:54:16;99483.72;;;20.33;46.46
16821;BME280;8527;49.740;6.604;2023-05-14T16:59:17;99493.94;;;20.31;46.02
16821;BME280;8527;49.740;6.604;2023-05-14T17:04:15;99495.19;;;20.12;46.44
16821;BME280;8527;49.740;6.604;2023-05-14T17:09:14;99490.06;;;19.98;47.00
16821;BME280;8527;49.740;6.604;2023-05-14T17:14:18;99489.44;;;19.96;46.87
16821;BME280;8527;49.740;6.604;2023-05-14T17:19:16;99498.31;;;20.08;47.36
16821;BME280;8527;49.740;6.604;2023-05-14T17:24:15;99503.97;;;19.95;47.12
16821;BME280;8527;49.740;6.604;2023-05-14T17:29:18;99505.50;;;19.79;49.88
16821;BME280;8527;49.740;6.604;2023-05-14T17:34:20;99523.75;;;19.41;52.17
16821;BME280;8527;49.740;6.604;2023-05-14T17:39:18;99521.28;;;19.16;53.47
16821;BME280;8527;49.740;6.604;2023-05-14T17:44:22;99521.13;;;19.10;54.89
16821;BME280;8527;49.740;6.604;2023-05-14T17:49:21;99518.34;;;19.17;54.69
16821;BME280;8527;49.740;6.604;2023-05-14T17:54:22;99523.78;;;18.98;55.88
16821;BME280;8527;49.740;6.604;2023-05-14T17:59:26;99534.06;;;18.71;57.01
16821;BME280;8527;49.740;6.604;2023-05-14T18:04:24;99532.44;;;18.70;57.05
16821;BME280;8527;49.740;6.604;2023-05-14T18:09:23;99529.56;;;18.83;56.98
16821;BME280;8527;49.740;6.604;2023-05-14T18:14:26;99532.47;;;18.82;56.76
16821;BME280;8527;49.740;6.604;2023-05-14T18:19:27;99521.47;;;18.72;56.73
16821;BME280;8527;49.740;6.604;2023-05-14T18:24:29;99521.72;;;18.82;57.62
16821;BME280;8527;49.740;6.604;2023-05-14T18:29:30;99526.56;;;18.92;59.06
16821;BME280;8527;49.740;6.604;2023-05-14T18:34:32;99526.78;;;18.90;61.70
16821;BME280;8527;49.740;6.604;2023-05-14T18:39:30;99525.06;;;18.65;62.08
16821;BME280;8527;49.740;6.604;2023-05-14T18:44:31;99530.72;;;18.57;60.89
16821;BME280;8527;49.740;6.604;2023-05-14T18:49:32;99538.38;;;18.41;61.23
16821;BME280;8527;49.740;6.604;2023-05-14T18:54:33;99541.91;;;18.23;63.54
16821;BME280;8527;49.740;6.604;2023-05-14T18:59:34;99546.97;;;18.13;63.48
16821;BME280;8527;49.740;6.604;2023-05-14T19:04:32;99546.56;;;17.91;63.90
16821;BME280;8527;49.740;6.604;2023-05-14T19:09:34;99551.19;;;17.83;63.46
16821;BME280;8527;49.740;6.604;2023-05-14T19:14:35;99544.84;;;17.78;63.37
16821;BME280;8527;49.740;6.604;2023-05-14T19:19:33;99574.22;;;17.66;64.49
16821;BME280;8527;49.740;6.604;2023-05-14T19:24:34;99585.88;;;16.88;67.47
16821;BME280;8527;49.740;6.604;2023-05-14T19:29:35;99591.63;;;17.31;65.96
16821;BME280;8527;49.740;6.604;2023-05-14T19:34:33;99592.84;;;17.35;66.53
16821;BME280;8527;49.740;6.604;2023-05-14T19:39:32;99593.41;;;17.12;66.27
16821;BME280;8527;49.740;6.604;2023-05-14T19:44:30;99593.19;;;17.13;66.96
16821;BME280;8527;49.740;6.604;2023-05-14T19:49:32;99592.63;;;16.98;67.62
16821;BME280;8527;49.740;6.604;2023-05-14T19:54:30;99598.28;;;16.83;68.88
16821;BME280;8527;49.740;6.604;2023-05-14T19:59:32;99597.66;;;16.81;68.69
16821;BME280;8527;49.740;6.604;2023-05-14T20:04:33;99598.72;;;16.73;68.30
16821;BME280;8527;49.740;6.604;2023-05-14T20:09:34;99592.59;;;16.59;68.03
16821;BME280;8527;49.740;6.604;2023-05-14T20:14:32;99591.00;;;16.51;68.99
16821;BME280;8527;49.740;6.604;2023-05-14T20:19:33;99598.00;;;16.45;69.58
16821;BME280;8527;49.740;6.604;2023-05-14T20:24:32;99586.72;;;16.30;70.46
16821;BME280;8527;49.740;6.604;2023-05-14T20:29:30;99584.91;;;16.17;70.31
16821;BME280;8527;49.740;6.604;2023-05-14T20:34:29;99585.34;;;16.14;69.93
16821;BME280;8527;49.740;6.604;2023-05-14T20:39:30;99584.31;;;16.15;69.88
16821;BME280;8527;49.740;6.604;2023-05-14T20:44:28;99575.47;;;16.01;69.73
16821;BME280;8527;49.740;6.604;2023-05-14T20:49:27;99572.97;;;15.86;70.42
16821;BME280;8527;49.740;6.604;2023-05-14T20:54:25;99572.78;;;15.81;70.79
16821;BME280;8527;49.740;6.604;2023-05-14T20:59:26;99566.44;;;15.68;71.43
16821;BME280;8527;49.740;6.604;2023-05-14T21:04:25;99575.47;;;15.60;70.67
16821;BME280;8527;49.740;6.604;2023-05-14T21:09:23;99572.59;;;15.42;71.49
16821;BME280;8527;49.740;6.604;2023-05-14T21:14:22;99565.19;;;15.30;72.04
16821;BME280;8527;49.740;6.604;2023-05-14T21:19:23;99566.59;;;15.13;73.81
16821;BME280;8527;49.740;6.604;2023-05-14T21:24:24;99571.31;;;15.11;73.51
16821;BME280;8527;49.740;6.604;2023-05-14T21:29:25;99574.56;;;14.93;74.66
16821;BME280;8527;49.740;6.604;2023-05-14T21:34:26;99571.47;;;14.82;74.29
16821;BME280;8527;49.740;6.604;2023-05-14T21:39:30;99564.97;;;14.56;76.58
16821;BME280;8527;49.740;6.604;2023-05-14T21:44:29;99554.09;;;14.51;76.29
16821;BME280;8527;49.740;6.604;2023-05-14T21:49:33;99550.34;;;14.45;75.37
16821;BME280;8527;49.740;6.604;2023-05-14T21:54:31;99553.81;;;14.39;75.94
16821;BME280;8527;49.740;6.604;2023-05-14T21:59:32;99549.00;;;14.21;76.19
16821;BME280;8527;49.740;6.604;2023-05-14T22:04:33;99550.84;;;14.20;76.68
16821;BME280;8527;49.740;6.604;2023-05-14T22:09:31;99556.59;;;14.17;77.07
16821;BME280;8527;49.740;6.604;2023-05-14T22:14:34;99556.16;;;14.14;77.33
16821;BME280;8527;49.740;6.604;2023-05-14T22:19:35;99560.97;;;13.97;77.95
16821;BME280;8527;49.740;6.604;2023-05-14T22:24:36;99574.09;;;13.91;78.20
16821;BME280;8527;49.740;6.604;2023-05-14T22:29:35;99566.66;;;13.87;78.46
16821;BME280;8527;49.740;6.604;2023-05-14T22:34:43;99565.66;;;13.88;78.05
16821;BME280;8527;49.740;6.604;2023-05-14T22:39:41;99558.41;;;13.82;78.96
16821;BME280;8527;49.740;6.604;2023-05-14T22:44:43;99556.63;;;13.60;80.53
16821;BME280;8527;49.740;6.604;2023-05-14T22:49:44;99553.50;;;13.57;80.10
16821;BME280;8527;49.740;6.604;2023-05-14T22:54:42;99544.94;;;13.61;79.87
16821;BME280;8527;49.740;6.604;2023-05-14T22:59:43;99543.00;;;13.48;80.09
16821;BME280;8527;49.740;6.604;2023-05-14T23:04:44;99534.66;;;13.58;78.65
16821;BME280;8527;49.740;6.604;2023-05-14T23:09:42;99535.59;;;13.44;78.22
16821;BME280;8527;49.740;6.604;2023-05-14T23:14:44;99536.41;;;13.22;79.31
16821;BME280;8527;49.740;6.604;2023-05-14T23:19:45;99527.78;;;12.99;81.75
16821;BME280;8527;49.740;6.604;2023-05-14T23:24:46;99533.56;;;13.02;81.14
16821;BME280;8527;49.740;6.604;2023-05-14T23:29:45;99519.59;;;13.00;83.31
16821;BME280;8527;49.740;6.604;2023-05-14T23:34:49;99527.09;;;12.90;83.34
16821;BME280;8527;49.740;6.604;2023-05-14T23:39:48;99520.78;;;12.76;83.17
16821;BME280;8527;49.740;6.604;2023-05-14T23:44:46;99516.16;;;12.85;82.72
16821;BME280;8527;49.740;6.604;2023-05-14T23:49:50;99513.94;;;12.66;83.31
16821;BME280;8527;49.740;6.604;2023-05-14T23:54:49;99516.06;;;12.56;83.27
16821;BME280;8527;49.740;6.604;2023-05-14T23:59:47;99504.53;;;12.49;85.74
